createdAt,value
2023-01-06T00:01:19.507Z,4.03
2023-01-06T00:05:01.569Z,3.10
2023-01-06T00:08:43.525Z,2.35
2023-01-06T00:12:27.000Z,4.28
2023-01-06T00:16:11.544Z,4.57
2023-01-06T00:19:53.531Z,4.88
2023-01-06T00:23:36.811Z,7.28
2023-01-06T00:27:18.730Z,6.90
2023-01-06T00:31:07.235Z,9.40
2023-01-06T00:34:49.218Z,10.50
2023-01-06T00:38:31.383Z,6.03
2023-01-06T00:42:13.363Z,5.97
2023-01-06T00:45:55.222Z,6.70
2023-01-06T00:49:37.713Z,14.23
2023-01-06T00:53:19.680Z,4.23
2023-01-06T00:57:01.657Z,5.03
2023-01-06T01:00:43.567Z,4.93
2023-01-06T01:04:26.152Z,4.43
2023-01-06T01:08:08.240Z,6.20
2023-01-06T01:12:09.706Z,6.75
2023-01-06T01:15:51.729Z,4.15
2023-01-06T01:19:33.813Z,4.80
2023-01-06T01:23:15.712Z,6.50
2023-01-06T01:26:58.146Z,6.72
2023-01-06T01:30:40.065Z,7.37
2023-01-06T01:34:23.009Z,9.85
2023-01-06T01:38:04.947Z,5.30
2023-01-06T01:41:46.999Z,5.83
2023-01-06T01:45:30.020Z,5.43
2023-01-06T01:49:39.714Z,6.53
2023-01-06T01:53:25.642Z,5.40
2023-01-06T01:57:16.240Z,5.27
2023-01-06T02:00:58.144Z,4.78
2023-01-06T02:04:43.893Z,7.00
2023-01-06T02:08:44.275Z,8.20
2023-01-06T02:12:26.389Z,5.60
2023-01-06T02:16:28.867Z,3.75
2023-01-06T02:20:19.610Z,5.53
2023-01-06T02:24:39.031Z,5.97
2023-01-06T02:29:13.291Z,5.15
2023-01-06T02:33:21.184Z,7.13
2023-01-06T02:37:06.759Z,5.10
2023-01-06T02:41:11.659Z,7.28
2023-01-06T02:45:05.152Z,4.80
2023-01-06T02:49:03.574Z,6.43
2023-01-06T02:52:49.465Z,5.70
2023-01-06T02:56:36.188Z,4.35
2023-01-06T03:00:40.873Z,3.50
2023-01-06T03:04:31.395Z,3.33
2023-01-06T03:08:18.071Z,3.95
2023-01-06T03:12:03.351Z,4.15
2023-01-06T03:15:45.367Z,5.43
2023-01-06T03:19:27.505Z,4.95
2023-01-06T03:23:09.479Z,1.95
2023-01-06T03:26:53.966Z,5.30
2023-01-06T03:31:34.804Z,5.57
2023-01-06T03:35:40.824Z,6.78
2023-01-06T03:39:48.599Z,5.50
2023-01-06T03:43:42.648Z,4.22
2023-01-06T03:47:46.404Z,5.53
2023-01-06T03:51:46.565Z,6.30
2023-01-06T03:55:34.264Z,3.90
2023-01-06T03:59:27.091Z,6.45
2023-01-06T04:03:12.090Z,1.85
2023-01-06T04:06:54.026Z,7.27
2023-01-06T04:10:35.982Z,4.80
2023-01-06T04:14:17.936Z,4.97
2023-01-06T04:17:59.842Z,7.73
2023-01-06T04:21:41.746Z,3.20
2023-01-06T04:25:24.331Z,6.68
2023-01-06T04:29:06.163Z,5.65
2023-01-06T04:32:48.183Z,6.50
2023-01-06T04:36:31.379Z,2.55
2023-01-06T04:40:13.776Z,4.43
2023-01-06T04:43:57.990Z,5.67
2023-01-06T04:47:41.707Z,4.75
2023-01-06T04:51:23.587Z,6.00
2023-01-06T04:55:05.852Z,5.20
2023-01-06T04:58:48.035Z,4.00
2023-01-06T05:02:29.981Z,4.40
2023-01-06T05:06:12.644Z,4.82
2023-01-06T05:09:54.571Z,4.63
2023-01-06T05:13:37.185Z,5.38
2023-01-06T05:17:19.102Z,5.63
2023-01-06T05:21:01.052Z,3.97
2023-01-06T05:24:43.200Z,8.10
2023-01-06T05:28:25.512Z,8.32
2023-01-06T05:32:07.562Z,7.10
2023-01-06T05:35:49.565Z,10.35
2023-01-06T05:39:31.501Z,7.82
2023-01-06T05:43:13.344Z,6.32
2023-01-06T05:46:55.516Z,5.03
2023-01-06T05:50:37.378Z,6.07
2023-01-06T05:54:19.298Z,6.60
2023-01-06T05:58:01.199Z,8.30
2023-01-06T06:01:43.223Z,7.80
2023-01-06T06:05:25.438Z,4.88
2023-01-06T06:09:07.498Z,7.23
2023-01-06T06:12:52.446Z,4.57
2023-01-06T06:16:35.146Z,3.65
2023-01-06T06:20:17.360Z,5.95
2023-01-06T06:24:00.145Z,4.10
2023-01-06T06:27:42.029Z,4.70
2023-01-06T06:31:26.460Z,5.68
2023-01-06T06:35:08.725Z,2.93
2023-01-06T06:38:52.210Z,4.72
2023-01-06T06:42:34.109Z,6.60
2023-01-06T06:46:16.870Z,6.35
2023-01-06T06:49:58.855Z,6.60
2023-01-06T06:53:41.745Z,6.35
2023-01-06T06:57:23.718Z,3.85
2023-01-06T07:01:11.574Z,4.23
2023-01-06T07:04:53.538Z,5.93
2023-01-06T07:08:36.034Z,7.03
2023-01-06T07:12:18.132Z,4.60
2023-01-06T07:16:00.138Z,4.93
2023-01-06T07:19:42.158Z,5.93
2023-01-06T07:23:24.517Z,4.67
2023-01-06T07:27:06.410Z,2.58
2023-01-06T07:30:48.631Z,6.07
2023-01-06T07:34:30.654Z,4.85
2023-01-06T07:38:12.831Z,7.83
2023-01-06T07:41:54.789Z,4.78
2023-01-06T07:45:37.274Z,8.68
2023-01-06T07:49:19.189Z,10.10
2023-01-06T07:53:02.688Z,8.65
2023-01-06T07:56:44.660Z,7.45
2023-01-06T08:00:27.270Z,4.83
2023-01-06T08:04:09.278Z,3.97
2023-01-06T08:07:51.396Z,4.25
2023-01-06T08:11:33.316Z,5.85
2023-01-06T08:15:15.390Z,5.33
2023-01-06T08:18:57.433Z,12.40
2023-01-06T08:22:39.504Z,6.75
2023-01-06T08:26:21.411Z,5.67
2023-01-06T08:30:03.769Z,5.53
2023-01-06T08:33:46.445Z,5.72
2023-01-06T08:37:39.744Z,5.30
2023-01-06T08:41:22.173Z,5.25
2023-01-06T08:45:05.153Z,5.97
2023-01-06T08:48:54.403Z,7.75
2023-01-06T08:52:37.075Z,6.43
2023-01-06T08:56:22.484Z,6.75
2023-01-06T09:00:12.163Z,7.32
2023-01-06T09:03:54.564Z,5.67
2023-01-06T09:07:37.559Z,6.18
2023-01-06T09:11:26.891Z,6.07
2023-01-06T09:15:09.624Z,3.83
2023-01-06T09:18:52.137Z,4.43
2023-01-06T09:22:41.971Z,10.35
2023-01-06T09:26:24.445Z,8.70
2023-01-06T09:30:08.392Z,5.43
2023-01-06T09:33:57.560Z,7.95
2023-01-06T09:37:40.067Z,4.97
2023-01-06T09:42:10.831Z,6.10
2023-01-06T09:46:40.964Z,6.60
2023-01-06T09:50:50.898Z,8.80
2023-01-06T09:54:43.319Z,5.78
2023-01-06T09:58:52.767Z,9.07
2023-01-06T10:02:40.223Z,9.35
2023-01-06T10:06:46.049Z,5.65
2023-01-06T10:10:34.646Z,6.88
2023-01-06T10:14:53.406Z,9.18
2023-01-06T10:27:22.107Z,6.40
2023-01-06T10:31:24.028Z,11.17
2023-01-06T10:35:13.370Z,7.57
2023-01-06T10:39:17.036Z,11.23
2023-01-06T10:47:33.212Z,7.35
2023-01-06T10:52:02.853Z,9.90
2023-01-06T11:01:01.036Z,10.20
2023-01-06T11:05:31.967Z,6.40
2023-01-06T11:10:02.015Z,7.82
2023-01-06T11:14:11.277Z,4.90
2023-01-06T11:17:53.995Z,9.38
2023-01-06T11:22:05.044Z,11.70
2023-01-06T11:26:12.827Z,6.10
2023-01-06T11:29:58.531Z,10.13
2023-01-06T11:33:56.693Z,7.93
2023-01-06T11:38:11.683Z,10.00
2023-01-06T11:46:07.327Z,11.57
2023-01-06T11:50:35.105Z,7.43
2023-01-06T11:54:45.317Z,10.50
2023-01-06T11:58:44.883Z,9.05
2023-01-06T12:02:38.563Z,11.43
2023-01-06T12:06:24.764Z,8.63
2023-01-06T12:10:52.607Z,6.40
2023-01-06T12:15:22.259Z,8.32
2023-01-06T12:19:52.304Z,8.25
2023-01-06T12:24:23.177Z,10.33
2023-01-06T12:28:53.404Z,7.53
2023-01-06T12:33:24.182Z,6.72
2023-01-06T12:37:42.819Z,6.20
2023-01-06T12:41:34.087Z,7.88
2023-01-06T12:45:33.249Z,10.60
2023-01-06T12:49:26.482Z,6.85
2023-01-06T12:53:39.233Z,7.40
2023-01-06T12:58:10.094Z,7.97
2023-01-06T13:02:19.693Z,5.63
2023-01-06T13:06:49.538Z,5.63
2023-01-06T13:10:31.889Z,6.93
2023-01-06T13:15:04.184Z,8.25
2023-01-06T13:19:34.403Z,7.97
2023-01-06T13:23:43.517Z,7.40
2023-01-06T13:27:47.563Z,4.95
2023-01-06T13:41:00.794Z,5.28
2023-01-06T13:45:28.951Z,4.68
2023-01-06T13:53:22.108Z,5.63
2023-01-06T14:01:19.444Z,7.27
2023-01-06T14:05:28.008Z,6.85
2023-01-06T14:09:18.677Z,7.40
2023-01-06T14:13:22.627Z,6.90
2023-01-06T14:17:05.809Z,8.73
2023-01-06T14:21:31.516Z,5.88
2023-01-06T14:25:41.917Z,5.93
2023-01-06T14:29:43.132Z,4.23
2023-01-06T14:33:39.881Z,9.68
2023-01-06T14:37:28.515Z,8.20
2023-01-06T14:41:51.152Z,4.93
2023-01-06T14:46:18.770Z,3.38
2023-01-06T14:54:28.921Z,4.85
2023-01-06T14:58:37.105Z,5.87
2023-01-06T15:02:19.667Z,3.85
2023-01-06T15:06:13.838Z,5.70
2023-01-06T15:14:33.765Z,6.32
2023-01-06T15:18:41.772Z,6.97
2023-01-06T15:22:25.725Z,6.70
2023-01-06T15:26:32.546Z,6.28
2023-01-06T15:30:19.901Z,5.68
2023-01-06T15:34:45.694Z,3.78
2023-01-06T15:38:55.516Z,4.57
2023-01-06T15:42:40.817Z,5.60
2023-01-06T15:50:31.910Z,3.97
2023-01-06T15:58:30.757Z,5.80
2023-01-06T16:02:54.762Z,8.77
2023-01-06T16:10:45.650Z,5.72
2023-01-06T16:18:38.768Z,4.77
2023-01-06T16:22:26.101Z,3.83
2023-01-06T16:26:17.655Z,5.20
2023-01-06T16:30:14.205Z,3.03
2023-01-06T16:33:56.216Z,5.90
2023-01-06T16:37:38.266Z,6.97
2023-01-06T16:41:20.831Z,4.93
2023-01-06T16:45:21.199Z,5.00
2023-01-06T16:49:10.334Z,7.25
2023-01-06T16:53:10.571Z,9.60
2023-01-06T16:56:52.670Z,10.83
2023-01-06T17:00:38.657Z,9.98
2023-01-06T17:04:20.684Z,18.42
2023-01-06T17:08:09.289Z,11.00
2023-01-06T17:11:53.382Z,16.90
2023-01-06T17:15:35.428Z,15.98
2023-01-06T17:19:28.696Z,13.20
2023-01-06T17:23:11.529Z,15.20
2023-01-06T17:27:21.863Z,15.85
2023-01-06T17:31:11.157Z,20.70
2023-01-06T17:34:53.797Z,14.03
2023-01-06T17:38:35.767Z,10.73
2023-01-06T17:42:17.967Z,12.85
2023-01-06T17:46:00.607Z,11.87
2023-01-06T17:49:56.812Z,11.93
2023-01-06T17:53:57.166Z,13.05
2023-01-06T17:57:41.693Z,13.93
2023-01-06T18:01:30.096Z,12.38
2023-01-06T18:05:21.253Z,10.45
2023-01-06T18:09:06.111Z,13.15
2023-01-06T18:12:48.523Z,14.53
2023-01-06T18:16:33.168Z,16.10
2023-01-06T18:20:15.257Z,12.50
2023-01-06T18:23:57.757Z,12.37
2023-01-06T18:27:40.328Z,11.55
2023-01-06T18:31:23.268Z,15.25
2023-01-06T18:35:16.196Z,12.55
2023-01-06T18:39:00.614Z,16.15
2023-01-06T18:42:45.351Z,11.60
2023-01-06T18:46:27.273Z,14.57
2023-01-06T18:50:33.292Z,16.87
2023-01-06T18:54:19.809Z,24.13
2023-01-06T18:58:19.766Z,15.38
2023-01-06T19:02:03.384Z,13.80
2023-01-06T19:05:45.881Z,13.90
2023-01-06T19:09:27.886Z,12.75
2023-01-06T19:13:29.449Z,21.10
2023-01-06T19:17:33.292Z,16.50
2023-01-06T19:21:16.452Z,17.50
2023-01-06T19:25:23.693Z,16.08
2023-01-06T19:29:12.244Z,12.00
2023-01-06T19:32:54.243Z,20.35
2023-01-06T19:36:39.303Z,21.33
2023-01-06T19:40:32.183Z,11.90
2023-01-06T19:44:15.658Z,16.60
2023-01-06T19:48:00.779Z,17.30
2023-01-06T19:51:42.885Z,15.60
2023-01-06T19:55:32.507Z,11.32
2023-01-06T19:59:24.857Z,13.35
2023-01-06T20:03:33.302Z,15.00
2023-01-06T20:07:15.283Z,13.20
2023-01-06T20:10:57.290Z,14.68
2023-01-06T20:14:39.287Z,15.05
2023-01-06T20:18:21.400Z,13.73
2023-01-06T20:22:03.315Z,12.15
2023-01-06T20:25:45.322Z,17.42
2023-01-06T20:29:27.370Z,7.55
2023-01-06T20:33:09.409Z,10.90
2023-01-06T20:36:51.319Z,11.18
2023-01-06T20:40:33.340Z,8.73
2023-01-06T20:44:15.337Z,17.63
2023-01-06T20:47:57.437Z,11.13
2023-01-06T20:51:39.655Z,14.02
2023-01-06T20:55:21.737Z,8.77
2023-01-06T20:59:03.970Z,16.58
2023-01-06T21:02:45.995Z,13.10
2023-01-06T21:06:28.052Z,14.25
2023-01-06T21:10:10.314Z,13.07
2023-01-06T21:13:52.320Z,18.73
2023-01-06T21:17:34.331Z,14.75
2023-01-06T21:21:16.314Z,11.80
2023-01-06T21:24:58.457Z,17.67
2023-01-06T21:28:40.394Z,14.43
2023-01-06T21:32:22.383Z,11.30
2023-01-06T21:36:04.550Z,15.25
2023-01-06T21:39:48.015Z,18.42
2023-01-06T21:43:30.292Z,12.75
2023-01-06T21:47:13.143Z,14.82
2023-01-06T21:50:55.374Z,12.40
2023-01-06T21:54:37.641Z,17.77
2023-01-06T21:58:19.770Z,12.87
2023-01-06T22:02:01.735Z,17.80
2023-01-06T22:05:44.461Z,12.88
2023-01-06T22:09:27.964Z,20.57
2023-01-06T22:13:12.796Z,15.88
2023-01-06T22:16:54.920Z,12.98
2023-01-06T22:20:37.480Z,15.98
2023-01-06T22:24:20.197Z,14.52
2023-01-06T22:28:03.505Z,16.20
2023-01-06T22:31:45.482Z,15.02
2023-01-06T22:35:28.217Z,13.13
2023-01-06T22:39:10.261Z,13.45
2023-01-06T22:42:52.253Z,15.75
2023-01-06T22:46:34.257Z,14.50
2023-01-06T22:50:16.276Z,14.88
2023-01-06T22:53:58.832Z,19.40
2023-01-06T22:57:41.080Z,10.95
2023-01-06T23:01:23.390Z,16.83
2023-01-06T23:05:05.585Z,11.57
2023-01-06T23:08:59.560Z,11.23
2023-01-06T23:12:43.084Z,15.67
2023-01-06T23:16:26.784Z,8.73
2023-01-06T23:20:09.482Z,14.05
2023-01-06T23:23:52.300Z,14.10
2023-01-06T23:27:34.344Z,10.75
2023-01-06T23:31:25.118Z,14.15
2023-01-06T23:35:07.323Z,9.95
2023-01-06T23:38:49.679Z,11.10
2023-01-06T23:42:34.426Z,12.68
2023-01-06T23:46:22.565Z,15.80
2023-01-06T23:50:04.867Z,14.03
2023-01-06T23:53:46.925Z,11.48
2023-01-06T23:57:28.828Z,21.73
